Time;durP1;ratioP1;P1;durP2;ratioP2;P2;SDS_P1;SDS_P2;PMS_P1;PMS_P2;Temp;Humidity;BMP_temperature;BMP_pressure;BME280_temperature;BME280_humidity;BME280_pressure;Samples;Min_cycle;Max_cycle;Signal;HPM_P1;HPM_P2
2023/12/21 00:04:16;;;;;;;3.47;1.10;;;;;;;18.87;38.59;100860.03;16110165;19;129624;-47
2023/12/21 00:09:38;;;;;;;2.58;0.82;;;;;;;18.82;38.34;100826.69;16108684;19;130649;-52
2023/12/21 00:15:00;;;;;;;1.90;0.75;;;;;;;18.77;38.28;100828.28;16108577;19;129920;-48
2023/12/21 00:20:22;;;;;;;2.55;0.80;;;;;;;18.72;38.31;100819.03;16108700;19;132198;-47
2023/12/21 00:25:44;;;;;;;1.90;0.60;;;;;;;18.67;38.33;100805.94;16110888;19;130192;-46
2023/12/21 00:31:06;;;;;;;1.65;0.70;;;;;;;18.62;38.65;100797.50;16104014;19;129791;-44
2023/12/21 00:36:28;;;;;;;1.48;0.60;;;;;;;18.57;38.88;100798.28;16105553;19;131284;-47
2023/12/21 00:41:50;;;;;;;2.83;0.70;;;;;;;18.54;38.90;100781.31;16106191;19;129366;-45
2023/12/21 00:47:12;;;;;;;2.65;0.80;;;;;;;18.50;38.92;100769.03;16106552;19;132063;-45
2023/12/21 00:52:34;;;;;;;2.55;0.68;;;;;;;18.45;38.58;100754.03;16106584;19;130123;-45
2023/12/21 00:57:56;;;;;;;3.15;0.70;;;;;;;18.42;38.96;100740.66;16120675;19;130882;-45
2023/12/21 01:03:18;;;;;;;1.95;0.60;;;;;;;18.37;39.04;100732.22;16118258;19;129471;-44
2023/12/21 01:08:40;;;;;;;1.45;0.60;;;;;;;18.33;39.05;100733.81;16121092;19;130894;-45
2023/12/21 01:14:02;;;;;;;1.63;0.60;;;;;;;18.29;38.80;100716.00;16118153;19;131456;-46
2023/12/21 01:19:24;;;;;;;1.35;0.50;;;;;;;18.27;38.96;100699.66;16115408;19;131828;-46
2023/12/21 01:24:46;;;;;;;1.90;0.80;;;;;;;18.22;38.90;100698.69;16117816;19;129759;-47
2023/12/21 01:30:08;;;;;;;1.95;0.93;;;;;;;18.20;39.06;100717.53;16117212;19;129726;-45
2023/12/21 01:35:30;;;;;;;1.65;0.60;;;;;;;18.17;39.23;100690.31;16116169;19;132074;-46
2023/12/21 01:40:53;;;;;;;1.75;0.60;;;;;;;18.13;38.98;100654.81;16117195;19;130829;-48
2023/12/21 01:46:15;;;;;;;3.13;0.70;;;;;;;18.11;39.08;100659.75;16117259;19;129995;-45
2023/12/21 01:51:37;;;;;;;1.80;0.63;;;;;;;18.08;39.35;100663.06;16118615;19;129823;-46
2023/12/21 01:57:00;;;;;;;1.60;0.60;;;;;;;18.06;39.08;100659.69;16116030;19;130039;-47
2023/12/21 02:02:22;;;;;;;3.20;0.73;;;;;;;18.05;39.11;100657.16;16113984;19;129760;-45
2023/12/21 02:07:44;;;;;;;2.47;0.85;;;;;;;18.00;39.20;100647.69;16116429;19;129455;-46
2023/12/21 02:13:06;;;;;;;4.18;0.80;;;;;;;17.99;39.25;100650.69;16115226;19;130395;-47
2023/12/21 02:18:28;;;;;;;1.98;0.45;;;;;;;17.96;39.05;100645.66;16111075;19;130304;-49
2023/12/21 02:23:53;;;;;;;1.90;0.60;;;;;;;17.94;39.29;100631.22;16118170;19;129825;-45
2023/12/21 02:29:15;;;;;;;2.13;0.63;;;;;;;17.91;39.00;100628.94;16112235;19;131612;-44
2023/12/21 02:34:37;;;;;;;2.38;0.60;;;;;;;17.89;39.45;100628.34;16109635;19;129393;-44
2023/12/21 02:39:59;;;;;;;1.83;0.60;;;;;;;17.87;39.38;100613.91;16113868;19;129807;-48
2023/12/21 02:45:21;;;;;;;1.50;0.70;;;;;;;17.84;39.08;100596.75;16110507;19;131033;-50
2023/12/21 02:50:43;;;;;;;1.55;0.50;;;;;;;17.83;39.35;100591.44;16112118;19;131586;-48
2023/12/21 02:56:06;;;;;;;2.25;0.65;;;;;;;17.82;39.12;100579.56;16116355;19;129667;-48
2023/12/21 03:01:28;;;;;;;1.75;0.70;;;;;;;17.79;39.15;100568.97;16113390;19;130140;-48
2023/12/21 03:06:50;;;;;;;1.10;0.57;;;;;;;17.78;39.41;100560.94;16115073;19;130175;-49
2023/12/21 03:12:12;;;;;;;1.50;0.60;;;;;;;17.76;39.32;100539.03;16114132;19;129421;-45
2023/12/21 03:17:34;;;;;;;2.70;1.10;;;;;;;17.74;39.42;100560.56;16117601;19;129545;-47
2023/12/21 03:22:56;;;;;;;2.50;0.80;;;;;;;17.73;39.18;100542.28;16116966;19;130198;-47
2023/12/21 03:28:19;;;;;;;2.85;0.77;;;;;;;17.71;39.15;100511.31;16111309;19;131166;-46
2023/12/21 03:33:41;;;;;;;3.03;0.80;;;;;;;17.70;39.19;100490.25;16111896;19;129899;-48
2023/12/21 03:39:03;;;;;;;2.53;0.60;;;;;;;17.68;39.53;100468.34;16110753;19;130295;-46
2023/12/21 03:44:25;;;;;;;1.60;0.60;;;;;;;17.68;39.25;100467.53;16112513;19;129910;-46
2023/12/21 03:49:47;;;;;;;3.05;0.57;;;;;;;17.66;39.20;100472.47;16117086;19;130005;-47
2023/12/21 03:55:09;;;;;;;2.75;0.98;;;;;;;17.64;39.17;100449.75;16111419;19;129290;-47
2023/12/21 04:00:33;;;;;;;2.60;0.60;;;;;;;17.62;39.54;100451.91;16108475;19;129388;-50
2023/12/21 04:05:55;;;;;;;3.10;0.88;;;;;;;17.61;39.32;100444.72;16118005;19;132483;-47
2023/12/21 04:11:17;;;;;;;2.78;0.70;;;;;;;17.62;39.68;100438.09;16111096;19;129866;-46
2023/12/21 04:16:39;;;;;;;3.30;0.70;;;;;;;17.59;39.29;100430.31;16106409;19;130849;-48
2023/12/21 04:22:01;;;;;;;3.83;0.90;;;;;;;17.58;39.75;100407.34;16104689;19;129382;-45
2023/12/21 04:27:24;;;;;;;5.72;1.45;;;;;;;17.57;39.70;100400.13;16110525;19;129468;-48
2023/12/21 04:32:46;;;;;;;3.78;0.98;;;;;;;17.56;39.71;100394.84;16119735;19;131516;-44
2023/12/21 04:38:09;;;;;;;2.58;0.80;;;;;;;17.54;39.66;100393.19;16121940;19;129765;-46
2023/12/21 04:43:31;;;;;;;2.70;0.70;;;;;;;17.54;39.39;100389.53;16122352;19;131911;-46
2023/12/21 04:48:53;;;;;;;3.25;0.82;;;;;;;17.52;39.32;100359.38;16123665;19;129595;-45
2023/12/21 04:54:16;;;;;;;2.40;0.90;;;;;;;17.52;39.62;100342.78;16126320;19;131122;-45
2023/12/21 04:59:42;;;;;;;4.45;1.00;;;;;;;17.50;39.71;100344.94;16124315;19;130454;-47
2023/12/21 05:05:04;;;;;;;2.13;0.85;;;;;;;17.48;39.42;100341.59;16120457;19;130677;-46
2023/12/21 05:10:26;;;;;;;4.40;1.73;;;;;;;17.48;39.54;100318.66;16116675;19;130474;-50
2023/12/21 05:15:48;;;;;;;3.38;0.88;;;;;;;17.46;39.42;100324.44;16117351;19;131305;-45
2023/12/21 05:21:10;;;;;;;3.03;0.90;;;;;;;17.46;39.38;100282.09;16118497;19;129867;-47
2023/12/21 05:26:32;;;;;;;3.50;1.10;;;;;;;17.44;39.86;100279.59;16120577;19;130913;-45
2023/12/21 05:31:54;;;;;;;4.45;1.00;;;;;;;17.45;39.77;100306.16;16122207;19;129714;-44
2023/12/21 05:37:17;;;;;;;3.03;1.00;;;;;;;17.43;39.85;100294.53;16114231;19;129678;-46
2023/12/21 05:42:39;;;;;;;3.67;0.88;;;;;;;17.43;39.49;100272.41;16115976;19;129881;-46
2023/12/21 05:48:00;;;;;;;3.72;1.30;;;;;;;17.42;39.72;100265.19;16116551;19;129736;-45
2023/12/21 05:53:22;;;;;;;4.18;1.05;;;;;;;17.41;39.67;100246.94;16118354;19;129985;-45
2023/12/21 05:58:44;;;;;;;4.60;1.30;;;;;;;17.40;39.72;100250.78;16117595;19;129668;-45
2023/12/21 06:04:06;;;;;;;4.65;0.90;;;;;;;17.38;39.68;100253.81;16115176;19;130888;-46
2023/12/21 06:09:28;;;;;;;4.15;1.10;;;;;;;17.38;39.54;100245.50;16117256;19;131372;-45
2023/12/21 06:14:50;;;;;;;3.47;1.10;;;;;;;17.38;39.79;100241.91;16113069;19;130993;-47
2023/12/21 06:20:12;;;;;;;2.78;0.82;;;;;;;17.38;39.52;100233.59;16119456;19;130906;-45
2023/12/21 06:25:34;;;;;;;9.57;1.50;;;;;;;17.37;39.77;100230.00;16115092;19;129545;-46
2023/12/21 06:30:58;;;;;;;4.85;1.35;;;;;;;17.39;39.84;100205.72;16112986;19;130750;-44
2023/12/21 06:36:20;;;;;;;7.03;1.45;;;;;;;17.40;40.09;100178.88;16111193;19;129827;-47
2023/12/21 06:41:42;;;;;;;7.30;1.20;;;;;;;17.39;40.05;100169.78;16115615;19;129485;-44
2023/12/21 06:47:04;;;;;;;14.38;1.60;;;;;;;17.39;39.69;100214.00;16113701;19;129483;-46
2023/12/21 06:52:26;;;;;;;4.53;1.15;;;;;;;17.37;40.22;100191.31;16112185;19;130265;-46
2023/12/21 06:57:48;;;;;;;4.65;1.17;;;;;;;17.38;40.13;100186.59;16116256;19;130292;-46
2023/12/21 07:03:10;;;;;;;5.78;1.30;;;;;;;17.36;40.33;100183.25;16111606;19;129531;-46
2023/12/21 07:08:32;;;;;;;8.45;1.30;;;;;;;17.36;40.32;100167.50;16112332;19;129325;-48
2023/12/21 07:13:54;;;;;;;5.68;1.15;;;;;;;17.35;40.00;100151.19;16112877;19;130462;-44
2023/12/21 07:19:16;;;;;;;4.53;1.08;;;;;;;17.35;40.40;100142.91;16113154;19;130050;-44
2023/12/21 07:24:38;;;;;;;3.47;0.90;;;;;;;17.32;40.37;100144.22;16110784;19;130706;-45
2023/12/21 07:30:04;;;;;;;3.10;0.93;;;;;;;17.31;40.50;100136.19;16113642;19;130068;-46
2023/12/21 07:35:26;;;;;;;6.85;1.27;;;;;;;17.30;40.34;100134.53;16109523;19;130951;-45
2023/12/21 07:40:48;;;;;;;13.00;1.73;;;;;;;17.29;40.46;100121.78;16113214;19;129678;-44
2023/12/21 07:46:13;;;;;;;5.43;1.33;;;;;;;17.27;40.45;100107.38;16112139;19;130563;-43
2023/12/21 07:51:35;;;;;;;2.92;0.80;;;;;;;17.26;40.23;100105.72;16112403;19;129867;-44
2023/12/21 07:56:57;;;;;;;5.55;1.50;;;;;;;17.24;40.39;100109.56;16109507;19;129589;-44
2023/12/21 08:02:19;;;;;;;5.90;1.27;;;;;;;17.24;40.23;100105.97;16111113;19;129515;-45
2023/12/21 08:07:41;;;;;;;3.63;1.10;;;;;;;17.21;40.56;100092.66;16130277;19;129755;-44
2023/12/21 08:13:03;;;;;;;5.35;1.10;;;;;;;17.20;40.36;100102.91;16122397;19;130322;-44
2023/12/21 08:18:25;;;;;;;3.45;1.10;;;;;;;17.19;40.59;100100.38;16127200;19;129446;-45
2023/12/21 08:23:47;;;;;;;4.13;1.08;;;;;;;17.17;40.34;100100.66;16124627;19;129273;-48
2023/12/21 08:29:09;;;;;;;4.30;1.20;;;;;;;17.16;40.29;100079.63;16125771;19;130638;-43
2023/12/21 08:34:31;;;;;;;2.85;1.00;;;;;;;17.15;40.74;100068.84;16121814;19;130629;-45
2023/12/21 08:39:53;;;;;;;1.83;0.77;;;;;;;17.14;40.26;100081.81;16125915;19;131112;-44
2023/12/21 08:45:15;;;;;;;6.20;1.05;;;;;;;17.14;40.33;100080.97;16123968;19;129472;-43
2023/12/21 08:50:37;;;;;;;3.05;0.80;;;;;;;17.13;40.42;100068.25;16122113;19;129247;-44
2023/12/21 08:55:59;;;;;;;4.35;1.00;;;;;;;17.12;40.41;100061.88;16123307;19;129972;-44
2023/12/21 09:01:21;;;;;;;3.13;0.90;;;;;;;17.11;40.69;100027.03;16119882;19;129738;-46
2023/12/21 09:06:43;;;;;;;4.32;1.08;;;;;;;17.08;40.30;100028.41;16120034;19;129894;-43
2023/12/21 09:12:05;;;;;;;5.07;1.10;;;;;;;17.08;40.74;100022.88;16124047;19;130703;-45
2023/12/21 09:17:27;;;;;;;2.50;1.05;;;;;;;17.07;40.50;100012.91;16121017;19;130481;-46
2023/12/21 09:22:49;;;;;;;2.40;0.88;;;;;;;17.04;40.61;100005.16;16120537;19;129616;-43
2023/12/21 09:28:11;;;;;;;3.45;0.70;;;;;;;17.05;40.35;100008.75;16120285;19;130229;-46
2023/12/21 09:33:34;;;;;;;3.42;0.80;;;;;;;17.05;40.66;100008.75;16120797;19;130808;-44
2023/12/21 09:38:56;;;;;;;4.00;1.00;;;;;;;17.05;40.37;100012.31;16122265;19;130055;-48
2023/12/21 09:44:20;;;;;;;3.78;0.70;;;;;;;17.05;40.54;100014.25;16119874;19;129529;-45
2023/12/21 09:49:44;;;;;;;1.67;0.60;;;;;;;17.04;40.48;100013.44;16118589;19;129486;-44
2023/12/21 09:55:08;;;;;;;3.17;1.15;;;;;;;17.03;40.70;100024.72;16117365;19;131430;-48
2023/12/21 10:00:31;;;;;;;3.38;0.70;;;;;;;17.02;40.83;100014.78;16121762;19;129550;-44
2023/12/21 10:05:52;;;;;;;3.53;0.93;;;;;;;17.01;40.75;99994.59;16118359;19;129770;-44
2023/12/21 10:11:14;;;;;;;2.40;0.60;;;;;;;17.01;40.48;100002.03;16115999;19;129583;-47
2023/12/21 10:16:38;;;;;;;2.30;0.63;;;;;;;17.01;40.84;99993.75;16121948;19;130469;-48
2023/12/21 10:22:01;;;;;;;2.63;0.70;;;;;;;17.00;40.41;99975.50;16117153;19;129668;-46
2023/12/21 10:27:25;;;;;;;1.70;0.75;;;;;;;16.99;40.90;99974.69;16114641;19;130060;-48
2023/12/21 10:32:51;;;;;;;2.15;0.88;;;;;;;17.00;40.67;99975.50;16115083;19;129494;-43
2023/12/21 10:38:18;;;;;;;2.05;0.65;;;;;;;17.01;40.75;99977.19;16115012;19;130085;-45
2023/12/21 10:43:41;;;;;;;3.03;0.73;;;;;;;17.00;40.84;99983.78;16113369;19;129377;-45
2023/12/21 10:49:06;;;;;;;1.17;0.50;;;;;;;16.99;40.83;99979.34;16112944;19;131287;-44
2023/12/21 10:54:29;;;;;;;2.30;0.75;;;;;;;16.99;40.69;99995.94;16115694;19;129385;-44
2023/12/21 10:59:51;;;;;;;3.92;0.70;;;;;;;16.98;40.54;99986.00;16115863;19;130260;-45
2023/12/21 11:05:22;;;;;;;0.98;0.50;;;;;;;16.97;40.77;99998.16;16118700;19;131751;-44
2023/12/21 11:10:46;;;;;;;3.28;0.63;;;;;;;16.96;40.74;99979.91;16112267;19;129648;-44
2023/12/21 11:16:14;;;;;;;4.13;0.82;;;;;;;16.97;40.89;99995.38;16112040;19;129540;-43
2023/12/21 11:21:36;;;;;;;1.30;0.50;;;;;;;16.96;40.82;99974.38;16113496;19;130745;-48
2023/12/21 11:27:00;;;;;;;1.38;0.45;;;;;;;16.94;40.72;99982.91;16108977;19;131113;-44
2023/12/21 11:32:24;;;;;;;3.60;0.63;;;;;;;16.95;40.67;99987.34;16110663;19;129595;-46
2023/12/21 11:37:57;;;;;;;1.88;0.60;;;;;;;16.94;40.54;99966.31;16110629;19;130787;-44
2023/12/21 11:43:20;;;;;;;1.75;0.50;;;;;;;16.92;40.80;99947.25;16108458;19;129949;-44
2023/12/21 11:48:43;;;;;;;1.65;0.65;;;;;;;16.91;40.78;99959.41;16108021;19;130816;-44
2023/12/21 11:54:06;;;;;;;0.75;0.40;;;;;;;16.92;40.91;99979.59;16111794;19;131630;-45
2023/12/21 11:59:28;;;;;;;0.80;0.50;;;;;;;16.91;40.79;99947.53;16111345;19;129340;-45
2023/12/21 12:04:52;;;;;;;3.15;0.50;;;;;;;16.91;41.13;99919.91;16110847;19;130351;-46
2023/12/21 12:10:16;;;;;;;1.38;0.40;;;;;;;16.91;41.06;99937.28;16108992;19;130200;-43
2023/12/21 12:15:39;;;;;;;2.70;0.60;;;;;;;16.90;40.74;99913.53;16107517;19;131616;-46
2023/12/21 12:21:01;;;;;;;1.13;0.30;;;;;;;16.90;40.68;99916.28;16109847;19;130663;-44
2023/12/21 12:26:23;;;;;;;1.58;0.40;;;;;;;16.89;40.78;99875.13;16106665;19;131653;-46
2023/12/21 12:31:47;;;;;;;1.15;0.35;;;;;;;16.90;40.67;99898.88;16108238;19;130509;-45
2023/12/21 12:37:09;;;;;;;1.17;0.43;;;;;;;16.90;40.86;99896.94;16110823;19;129259;-44
2023/12/21 12:42:31;;;;;;;1.10;0.40;;;;;;;16.89;40.79;99889.75;16110052;19;130229;-44
2023/12/21 12:47:54;;;;;;;1.67;0.43;;;;;;;16.89;40.94;99891.69;16107508;19;129525;-44
2023/12/21 12:53:16;;;;;;;0.93;0.40;;;;;;;16.88;40.98;99879.78;16122398;19;131413;-45
2023/12/21 12:58:40;;;;;;;0.73;0.47;;;;;;;16.88;41.06;99912.13;16122328;19;129612;-44
2023/12/21 13:04:05;;;;;;;3.85;0.50;;;;;;;16.87;41.16;99875.34;16121849;19;129829;-45
2023/12/21 13:09:27;;;;;;;0.82;0.47;;;;;;;16.86;41.03;99876.44;16122597;19;129566;-46
2023/12/21 13:14:49;;;;;;;1.95;0.63;;;;;;;16.86;41.22;99898.56;16119060;19;129017;-44
2023/12/21 13:20:11;;;;;;;1.23;0.50;;;;;;;16.86;40.88;99881.97;16119493;19;131435;-45
2023/12/21 13:25:34;;;;;;;1.80;0.50;;;;;;;16.87;41.07;99880.06;16121030;19;129613;-45
2023/12/21 13:30:56;;;;;;;1.27;0.52;;;;;;;16.86;41.27;99873.69;16122733;19;131832;-46
2023/12/21 13:36:18;;;;;;;3.03;0.65;;;;;;;16.86;41.28;99859.88;16117182;19;131330;-47
2023/12/21 13:41:39;;;;;;;1.95;0.43;;;;;;;16.85;41.01;99873.97;16121874;19;130798;-46
2023/12/21 13:47:02;;;;;;;0.80;0.40;;;;;;;16.85;40.99;99869.28;16117760;19;129652;-47
2023/12/21 13:52:24;;;;;;;1.17;0.40;;;;;;;16.86;41.44;99883.91;16116368;19;129435;-46
2023/12/21 13:57:46;;;;;;;1.20;0.43;;;;;;;16.84;40.99;99884.19;16122954;19;129838;-48
2023/12/21 14:03:09;;;;;;;1.70;0.50;;;;;;;16.83;41.20;99877.00;16117492;19;129667;-43
2023/12/21 14:08:31;;;;;;;3.10;0.60;;;;;;;16.83;41.38;99862.31;16121732;19;131782;-47
2023/12/21 14:13:53;;;;;;;2.47;0.50;;;;;;;16.81;41.26;99881.94;16118804;19;129734;-45
2023/12/21 14:19:15;;;;;;;2.80;0.50;;;;;;;16.82;41.15;99902.94;16114442;19;130999;-45
2023/12/21 14:24:37;;;;;;;0.73;0.40;;;;;;;16.81;41.41;99873.66;16116901;19;131057;-44
2023/12/21 14:29:59;;;;;;;1.95;0.40;;;;;;;16.80;41.32;99894.06;16116804;19;129446;-44
2023/12/21 14:35:20;;;;;;;1.67;0.40;;;;;;;16.80;41.13;99899.59;16115855;19;131159;-44
2023/12/21 14:40:43;;;;;;;1.55;0.40;;;;;;;16.79;41.05;99911.75;16115713;19;129308;-46
2023/12/21 14:46:05;;;;;;;3.08;0.88;;;;;;;16.77;41.22;99912.00;16115455;19;130685;-43
2023/12/21 14:51:28;;;;;;;2.90;0.70;;;;;;;16.76;41.39;99903.97;16116514;19;129715;-47
2023/12/21 14:56:51;;;;;;;6.22;1.02;;;;;;;16.75;41.39;99905.06;16119389;19;129491;-45
2023/12/21 15:02:13;;;;;;;1.98;0.73;;;;;;;16.74;41.39;99917.19;16113344;19;131651;-48
2023/12/21 15:07:36;;;;;;;2.25;0.65;;;;;;;16.73;41.10;99929.34;16118317;19;130137;-43
2023/12/21 15:12:58;;;;;;;1.83;0.70;;;;;;;16.75;41.24;99946.47;16110365;19;130189;-48
2023/12/21 15:18:21;;;;;;;1.50;0.40;;;;;;;16.73;41.23;99951.47;16114019;19;129504;-47
2023/12/21 15:23:43;;;;;;;3.97;0.82;;;;;;;16.73;40.70;99962.50;16113721;19;130054;-47
2023/12/21 15:29:07;;;;;;;3.42;0.60;;;;;;;16.73;40.72;99959.75;16114199;19;130200;-45
2023/12/21 15:34:31;;;;;;;2.17;0.43;;;;;;;16.73;40.79;99968.84;16111482;19;129294;-45
2023/12/21 15:39:53;;;;;;;3.20;0.80;;;;;;;16.73;41.02;99965.25;16109918;19;130430;-48
2023/12/21 15:45:15;;;;;;;2.60;0.60;;;;;;;16.72;40.99;99964.41;16115123;19;129358;-43
2023/12/21 15:50:37;;;;;;;2.08;0.60;;;;;;;16.71;41.17;99961.91;16113936;19;130070;-44
2023/12/21 15:55:59;;;;;;;3.55;0.85;;;;;;;16.71;40.72;99979.31;16111240;19;129398;-45
2023/12/21 16:01:21;;;;;;;1.30;0.50;;;;;;;16.76;40.61;100000.63;16107223;19;129784;-44
2023/12/21 16:06:43;;;;;;;1.52;0.60;;;;;;;16.95;40.47;99981.00;16107242;19;129494;-44
2023/12/21 16:12:05;;;;;;;3.00;0.85;;;;;;;17.22;40.27;99981.88;16109360;19;131260;-44
2023/12/21 16:17:27;;;;;;;1.65;0.70;;;;;;;17.57;40.33;99967.84;16111199;19;129931;-43
2023/12/21 16:22:49;;;;;;;1.80;0.80;;;;;;;17.89;39.55;99953.16;16107248;19;130766;-46
2023/12/21 16:28:12;;;;;;;1.70;0.52;;;;;;;18.19;39.23;99973.88;16123096;19;130404;-43
2023/12/21 16:33:34;;;;;;;4.00;0.50;;;;;;;18.42;38.79;99984.56;16124194;19;130124;-44
2023/12/21 16:38:56;;;;;;;1.42;0.52;;;;;;;18.59;39.00;99989.06;16126995;19;132209;-45
2023/12/21 16:44:18;;;;;;;11.27;0.80;;;;;;;18.65;38.36;99981.63;16119920;19;129517;-57
2023/12/21 16:49:40;;;;;;;11.02;1.05;;;;;;;18.65;38.38;99996.31;16122710;19;129937;-48
2023/12/21 16:55:03;;;;;;;13.20;1.00;;;;;;;18.63;38.25;100015.13;16125569;19;130614;-49
2023/12/21 17:00:25;;;;;;;10.73;1.00;;;;;;;18.59;38.63;100012.09;16122490;19;130678;-48
2023/12/21 17:05:48;;;;;;;9.07;1.20;;;;;;;18.56;38.24;100020.09;16120159;19;129929;-50
2023/12/21 17:11:10;;;;;;;5.18;1.20;;;;;;;18.51;38.69;100042.22;16120492;19;129612;-50
2023/12/21 17:16:32;;;;;;;8.73;1.23;;;;;;;18.45;38.57;100025.56;16119578;19;130153;-46
2023/12/21 17:21:54;;;;;;;5.18;1.33;;;;;;;18.37;38.71;100020.50;16123028;19;130442;-48
2023/12/21 17:27:16;;;;;;;5.75;1.35;;;;;;;18.29;38.79;100066.13;16117317;19;129704;-46
2023/12/21 17:32:38;;;;;;;7.70;1.50;;;;;;;18.24;38.33;100059.72;16112837;19;131478;-48
2023/12/21 17:38:00;;;;;;;7.05;1.50;;;;;;;18.24;38.71;100054.16;16109724;19;129741;-47
2023/12/21 17:43:23;;;;;;;3.42;1.02;;;;;;;18.23;38.31;100064.44;16112775;19;129647;-48
2023/12/21 17:48:45;;;;;;;6.18;1.60;;;;;;;18.28;38.59;100058.91;16115863;19;129474;-50
2023/12/21 17:54:07;;;;;;;5.80;1.25;;;;;;;18.46;38.26;100057.69;16110587;19;130044;-52
2023/12/21 17:59:29;;;;;;;11.88;1.10;;;;;;;18.68;38.11;100078.06;16119002;19;129655;-46
2023/12/21 18:04:51;;;;;;;3.58;1.25;;;;;;;18.84;38.01;100085.38;16112968;19;132760;-53
2023/12/21 18:10:13;;;;;;;8.07;1.60;;;;;;;19.01;37.35;100068.53;16115551;19;134023;-46
2023/12/21 18:15:36;;;;;;;7.65;1.70;;;;;;;19.16;37.35;100070.53;16115928;19;130072;-47
2023/12/21 18:20:58;;;;;;;3.70;1.27;;;;;;;19.37;36.87;100079.00;16114895;19;129367;-50
2023/12/21 18:26:20;;;;;;;6.15;1.50;;;;;;;19.60;36.91;100082.38;16116157;19;129886;-47
2023/12/21 18:31:42;;;;;;;5.28;1.30;;;;;;;19.78;36.67;100100.47;16114530;19;130103;-47
2023/12/21 18:37:04;;;;;;;5.75;1.00;;;;;;;19.86;36.35;100111.00;16113463;19;129717;-48
2023/12/21 18:42:26;;;;;;;5.57;1.10;;;;;;;19.90;36.45;100133.50;16033532;19;145612;-47
2023/12/21 18:47:49;;;;;;;4.90;1.40;;;;;;;19.89;36.33;100146.56;16110908;19;130913;-47
2023/12/21 18:53:11;;;;;;;6.97;1.50;;;;;;;19.88;36.48;100146.84;16102854;19;131169;-46
2023/12/21 18:58:33;;;;;;;7.68;1.45;;;;;;;19.83;36.49;100133.75;16100335;19;131724;-54
2023/12/21 19:03:56;;;;;;;16.55;2.00;;;;;;;19.78;36.66;100144.88;16112796;19;129102;-58
2023/12/21 19:09:21;;;;;;;8.95;1.73;;;;;;;19.69;37.16;100144.56;16116077;19;129498;-57
2023/12/21 19:14:43;;;;;;;6.40;1.80;;;;;;;19.63;37.03;100149.25;16112831;19;130609;-52
2023/12/21 19:20:06;;;;;;;9.15;1.52;;;;;;;19.59;37.43;100142.56;16114145;19;129822;-56
2023/12/21 19:25:28;;;;;;;8.30;1.40;;;;;;;19.61;37.07;100162.56;16111369;19;130452;-59
2023/12/21 19:30:50;;;;;;;7.13;1.40;;;;;;;19.65;37.33;100162.84;16112466;19;130301;-56
2023/12/21 19:36:16;;;;;;;11.38;1.92;;;;;;;19.76;37.44;100160.94;16112016;19;130644;-54
2023/12/21 19:41:38;;;;;;;8.35;1.67;;;;;;;19.92;36.95;100187.66;16109794;19;130106;-59
2023/12/21 19:47:00;;;;;;;10.15;1.70;;;;;;;20.14;36.92;100204.09;16110673;19;130649;-57
2023/12/21 19:52:22;;;;;;;12.30;1.50;;;;;;;20.43;36.92;100183.34;16109583;19;130127;-58
2023/12/21 19:57:44;;;;;;;8.07;1.83;;;;;;;20.71;36.36;100197.78;16112101;19;130642;-54
2023/12/21 20:03:07;;;;;;;6.05;2.03;;;;;;;20.98;36.30;100225.34;16126525;19;129861;-58
2023/12/21 20:08:32;;;;;;;8.50;1.70;;;;;;;21.20;35.57;100216.66;16130776;19;130543;-59
2023/12/21 20:13:54;;;;;;;8.45;1.48;;;;;;;21.40;35.49;100226.09;16128486;19;130715;-58
2023/12/21 20:19:16;;;;;;;6.35;1.55;;;;;;;21.57;35.12;100224.94;16124412;19;133809;-59
2023/12/21 20:24:38;;;;;;;6.47;1.38;;;;;;;21.73;35.11;100229.34;16124162;19;130948;-56
2023/12/21 20:30:00;;;;;;;7.20;1.50;;;;;;;21.85;34.70;100245.69;16125746;19;130765;-57
2023/12/21 20:35:22;;;;;;;6.78;2.08;;;;;;;21.99;34.94;100234.78;16125046;19;130063;-59
2023/12/21 20:40:44;;;;;;;6.38;1.75;;;;;;;22.11;34.32;100235.28;16128024;19;129134;-57
2023/12/21 20:46:08;;;;;;;8.18;1.88;;;;;;;22.21;34.69;100242.81;16124541;19;129504;-58
2023/12/21 20:51:31;;;;;;;5.60;1.77;;;;;;;22.33;34.36;100236.03;16123800;19;129520;-58
2023/12/21 20:56:53;;;;;;;6.47;1.52;;;;;;;22.42;34.30;100254.63;16121956;19;130411;-59
2023/12/21 21:02:15;;;;;;;10.18;1.77;;;;;;;22.52;34.29;100258.50;16121311;19;130051;-57
2023/12/21 21:07:37;;;;;;;5.93;1.92;;;;;;;22.59;34.04;100268.16;16121684;19;129893;-56
2023/12/21 21:13:00;;;;;;;6.60;1.50;;;;;;;22.58;34.25;100301.91;16119511;19;129920;-54
2023/12/21 21:18:23;;;;;;;8.18;1.92;;;;;;;22.48;33.95;100288.88;16119014;19;130639;-61
2023/12/21 21:23:47;;;;;;;7.50;1.38;;;;;;;22.27;34.18;100304.91;16119684;19;132012;-60
2023/12/21 21:29:09;;;;;;;7.10;1.67;;;;;;;22.07;33.99;100312.19;16112655;19;130599;-60
2023/12/21 21:34:31;;;;;;;5.55;1.50;;;;;;;21.86;33.99;100321.75;16120405;19;133704;-56
2023/12/21 21:39:53;;;;;;;5.53;1.80;;;;;;;21.66;34.14;100303.97;16115049;19;129537;-57
2023/12/21 21:45:15;;;;;;;9.55;1.80;;;;;;;21.46;34.09;100325.13;16119180;19;129526;-57
2023/12/21 21:50:37;;;;;;;9.52;2.30;;;;;;;21.27;34.59;100319.28;16114613;19;130365;-57
2023/12/21 21:55:59;;;;;;;7.72;2.25;;;;;;;21.08;34.24;100327.38;16115720;19;130426;-57
2023/12/21 22:01:21;;;;;;;8.30;1.80;;;;;;;20.90;34.59;100324.03;16115151;19;130929;-57
2023/12/21 22:06:43;;;;;;;7.18;1.60;;;;;;;20.73;34.98;100327.03;16116179;19;129653;-55
2023/12/21 22:12:05;;;;;;;9.70;2.80;;;;;;;20.59;34.79;100323.13;16118757;19;130014;-57
2023/12/21 22:17:27;;;;;;;10.52;2.22;;;;;;;20.42;35.06;100340.03;16117560;19;129410;-56
2023/12/21 22:22:49;;;;;;;11.23;2.15;;;;;;;20.28;35.16;100343.31;16113610;19;129782;-58
2023/12/21 22:28:12;;;;;;;7.72;2.20;;;;;;;20.13;35.15;100338.50;16116879;19;131436;-59
2023/12/21 22:33:34;;;;;;;6.78;1.75;;;;;;;19.95;35.10;100320.34;16113324;19;129983;-58
2023/12/21 22:38:56;;;;;;;8.00;2.13;;;;;;;19.82;35.26;100343.03;16114079;19;130981;-57
2023/12/21 22:44:18;;;;;;;10.85;2.42;;;;;;;19.68;35.73;100356.56;16115098;19;130357;-56
2023/12/21 22:49:40;;;;;;;7.50;2.15;;;;;;;19.55;35.83;100362.56;16111113;19;131156;-58
2023/12/21 22:55:02;;;;;;;6.82;2.20;;;;;;;19.45;35.55;100360.53;16110433;19;130251;-57
2023/12/21 23:00:24;;;;;;;7.15;1.90;;;;;;;19.32;35.55;100367.41;16113435;19;132226;-58
2023/12/21 23:05:46;;;;;;;9.52;2.35;;;;;;;19.21;35.66;100395.03;16106391;19;132126;-58
2023/12/21 23:11:08;;;;;;;7.93;2.10;;;;;;;19.12;35.73;100382.72;16111088;19;131075;-57
2023/12/21 23:16:29;;;;;;;7.15;2.30;;;;;;;19.04;35.97;100375.72;16111548;19;131465;-57
2023/12/21 23:21:52;;;;;;;8.95;2.40;;;;;;;18.97;35.97;100360.41;16110285;19;129421;-58
2023/12/21 23:27:14;;;;;;;12.98;2.20;;;;;;;18.88;35.76;100347.03;16110060;19;131131;-57
2023/12/21 23:32:36;;;;;;;10.10;2.50;;;;;;;18.81;36.31;100370.50;16109067;19;131091;-57
2023/12/21 23:37:58;;;;;;;10.45;2.65;;;;;;;18.74;36.05;100371.53;16109201;19;131704;-58
2023/12/21 23:43:20;;;;;;;8.35;2.13;;;;;;;18.69;36.35;100365.94;16108444;19;130383;-61
2023/12/21 23:48:42;;;;;;;7.75;2.72;;;;;;;18.64;36.14;100376.16;16108841;19;130824;-58
2023/12/21 23:54:05;;;;;;;7.97;2.30;;;;;;;18.57;36.36;100362.50;16111542;19;130280;-56
2023/12/21 23:59:27;;;;;;;10.07;2.80;;;;;;;18.50;36.34;100370.16;16109001;19;131369;-59
